createdAt,value
2017-07-20T00:00:13.856Z,25.90
2017-07-20T00:02:41.391Z,25.90
2017-07-20T00:05:08.927Z,25.70
2017-07-20T00:07:36.472Z,25.70
2017-07-20T00:10:03.995Z,25.60
2017-07-20T00:12:31.546Z,25.60
2017-07-20T00:14:59.082Z,25.60
2017-07-20T00:17:26.616Z,25.50
2017-07-20T00:19:54.167Z,25.50
2017-07-20T00:22:21.702Z,25.50
2017-07-20T00:24:50.055Z,25.50
2017-07-20T00:27:17.579Z,25.50
2017-07-20T00:29:45.115Z,25.50
2017-07-20T00:32:12.660Z,25.50
2017-07-20T00:34:40.956Z,25.50
2017-07-20T00:37:08.499Z,25.50
2017-07-20T00:39:36.799Z,25.40
2017-07-20T00:42:04.332Z,25.40
2017-07-20T00:44:32.639Z,25.40
2017-07-20T00:47:00.182Z,25.40
2017-07-20T00:49:27.734Z,25.40
2017-07-20T00:51:56.032Z,25.40
2017-07-20T00:54:23.574Z,25.30
2017-07-20T00:56:51.888Z,25.30
2017-07-20T00:59:19.423Z,25.30
2017-07-20T01:01:46.972Z,25.30
2017-07-20T01:04:15.267Z,25.30
2017-07-20T01:06:42.819Z,25.30
2017-07-20T01:09:10.353Z,25.30
2017-07-20T01:11:37.887Z,25.30
2017-07-20T01:14:05.443Z,25.20
2017-07-20T01:16:32.981Z,25.20
2017-07-20T01:19:00.524Z,25.20
2017-07-20T01:21:28.065Z,25.20
2017-07-20T01:23:56.375Z,25.10
2017-07-20T01:26:23.908Z,25.10
2017-07-20T01:28:52.225Z,25.10
2017-07-20T01:31:19.755Z,25.00
2017-07-20T01:33:47.293Z,25.10
2017-07-20T01:36:15.595Z,25.00
2017-07-20T01:38:43.143Z,25.00
2017-07-20T01:41:11.455Z,25.00
2017-07-20T01:43:39.008Z,24.90
2017-07-20T01:46:06.539Z,24.90
2017-07-20T01:48:34.091Z,24.90
2017-07-20T01:51:02.387Z,24.80
2017-07-20T01:53:29.968Z,24.80
2017-07-20T01:55:57.499Z,24.80
2017-07-20T01:58:25.031Z,24.80
2017-07-20T02:00:52.587Z,24.80
2017-07-20T02:03:20.125Z,24.80
2017-07-20T02:05:47.672Z,24.70
2017-07-20T02:08:15.209Z,24.70
2017-07-20T02:10:42.792Z,24.70
2017-07-20T02:13:10.324Z,24.60
2017-07-20T02:15:37.863Z,24.60
2017-07-20T02:18:06.285Z,24.60
2017-07-20T02:20:33.836Z,24.60
2017-07-20T02:23:01.369Z,24.60
2017-07-20T02:25:29.745Z,24.50
2017-07-20T02:27:58.043Z,24.50
2017-07-20T02:30:25.591Z,24.50
2017-07-20T02:32:53.883Z,24.50
2017-07-20T02:35:21.451Z,24.50
2017-07-20T02:37:48.992Z,24.50
2017-07-20T02:40:16.498Z,24.40
2017-07-20T02:42:43.985Z,24.40
2017-07-20T02:45:11.497Z,24.40
2017-07-20T02:47:38.986Z,24.40
2017-07-20T02:50:06.495Z,24.40
2017-07-20T02:52:33.989Z,24.40
2017-07-20T02:55:01.474Z,24.30
2017-07-20T02:57:28.982Z,24.30
2017-07-20T02:59:56.481Z,24.30
2017-07-20T03:02:23.985Z,24.30
2017-07-20T03:04:51.489Z,24.30
2017-07-20T03:07:19.001Z,24.30
2017-07-20T03:09:46.506Z,24.30
2017-07-20T03:12:14.034Z,24.30
2017-07-20T03:14:41.533Z,24.30
2017-07-20T03:17:09.046Z,24.30
2017-07-20T03:19:36.570Z,24.20
2017-07-20T03:22:16.761Z,24.20
2017-07-20T03:24:44.244Z,24.20
2017-07-20T03:27:11.747Z,24.20
2017-07-20T03:29:40.002Z,24.20
2017-07-20T03:32:07.514Z,24.20
2017-07-20T03:34:35.007Z,24.20
2017-07-20T03:37:02.516Z,24.20
2017-07-20T03:39:30.010Z,24.20
2017-07-20T03:41:57.513Z,24.10
2017-07-20T03:44:25.765Z,24.10
2017-07-20T03:46:53.270Z,24.10
2017-07-20T03:49:20.757Z,24.10
2017-07-20T03:51:48.242Z,24.10
2017-07-20T03:54:15.838Z,24.00
2017-07-20T03:56:44.090Z,24.00
2017-07-20T03:59:11.608Z,24.00
2017-07-20T04:01:39.098Z,24.00
2017-07-20T04:04:06.626Z,23.90
2017-07-20T04:06:34.118Z,23.90
2017-07-20T04:09:01.617Z,23.90
2017-07-20T04:11:29.106Z,23.80
2017-07-20T04:13:56.614Z,23.80
2017-07-20T04:16:24.106Z,23.80
2017-07-20T04:18:51.622Z,23.80
2017-07-20T04:21:19.110Z,23.80
2017-07-20T04:23:46.618Z,23.70
2017-07-20T04:26:14.879Z,23.70
2017-07-20T04:28:42.398Z,23.70
2017-07-20T04:31:09.882Z,23.70
2017-07-20T04:33:37.390Z,23.70
2017-07-20T04:36:05.730Z,23.70
2017-07-20T04:38:33.235Z,23.70
2017-07-20T04:41:00.726Z,23.70
2017-07-20T04:43:28.242Z,23.70
2017-07-20T04:45:55.738Z,23.70
2017-07-20T04:48:23.225Z,23.70
2017-07-20T04:50:50.770Z,23.70
2017-07-20T04:53:18.261Z,23.80
2017-07-20T04:55:45.769Z,23.80
2017-07-20T04:58:13.262Z,23.80
2017-07-20T05:00:40.768Z,23.90
2017-07-20T05:03:08.255Z,23.90
2017-07-20T05:05:35.766Z,23.90
2017-07-20T05:08:03.259Z,24.00
2017-07-20T05:10:30.779Z,24.10
2017-07-20T05:12:58.278Z,24.20
2017-07-20T05:15:25.796Z,24.30
2017-07-20T05:17:53.291Z,24.50
2017-07-20T05:20:20.817Z,24.70
2017-07-20T05:22:48.309Z,24.90
2017-07-20T05:25:15.818Z,25.10
2017-07-20T05:27:43.305Z,25.30
2017-07-20T05:30:10.790Z,25.60
2017-07-20T05:32:38.290Z,25.80
2017-07-20T05:35:06.545Z,26.30
2017-07-20T05:37:34.046Z,26.30
2017-07-20T05:40:01.542Z,26.50
2017-07-20T05:42:29.047Z,26.70
2017-07-20T05:44:57.359Z,27.00
2017-07-20T05:47:25.026Z,27.00
2017-07-20T05:49:52.544Z,27.20
2017-07-20T05:52:20.041Z,27.30
2017-07-20T05:54:47.533Z,27.30
2017-07-20T05:57:15.028Z,27.40
2017-07-20T05:59:43.294Z,27.40
2017-07-20T06:02:11.589Z,27.40
2017-07-20T06:04:39.089Z,27.30
2017-07-20T06:07:06.590Z,27.30
2017-07-20T06:09:34.110Z,27.30
2017-07-20T06:12:01.606Z,27.30
2017-07-20T06:14:29.109Z,27.20
2017-07-20T06:16:56.606Z,27.20
2017-07-20T06:19:24.099Z,27.20
2017-07-20T06:21:51.614Z,27.10
2017-07-20T06:24:19.207Z,27.10
2017-07-20T06:26:46.721Z,27.10
2017-07-20T06:29:14.218Z,27.10
2017-07-20T06:31:41.717Z,27.10
2017-07-20T06:34:09.237Z,27.10
2017-07-20T06:36:36.734Z,27.10
2017-07-20T06:39:04.251Z,27.10
2017-07-20T06:41:31.750Z,27.10
2017-07-20T06:43:59.257Z,27.10
2017-07-20T06:46:26.754Z,27.10
2017-07-20T06:48:54.249Z,27.20
2017-07-20T06:51:22.529Z,27.40
2017-07-20T06:53:50.786Z,27.50
2017-07-20T06:56:18.311Z,27.50
2017-07-20T06:58:45.805Z,27.70
2017-07-20T07:01:13.318Z,27.90
2017-07-20T07:03:40.841Z,28.10
2017-07-20T07:06:09.106Z,28.50
2017-07-20T07:08:36.617Z,28.50
2017-07-20T07:11:05.871Z,28.80
2017-07-20T07:13:34.138Z,29.00
2017-07-20T07:16:01.655Z,29.00
2017-07-20T07:18:29.154Z,29.20
2017-07-20T07:20:56.667Z,29.40
2017-07-20T07:23:24.166Z,29.50
2017-07-20T07:25:51.666Z,29.60
2017-07-20T07:28:19.181Z,29.70
2017-07-20T07:30:46.674Z,29.90
2017-07-20T07:33:14.185Z,30.00
2017-07-20T07:35:41.677Z,30.10
2017-07-20T07:38:09.169Z,30.30
2017-07-20T07:40:36.686Z,30.40
2017-07-20T07:43:04.185Z,30.40
2017-07-20T07:45:31.711Z,30.50
2017-07-20T07:47:59.221Z,30.40
2017-07-20T07:50:26.714Z,30.50
2017-07-20T07:52:54.986Z,30.60
2017-07-20T07:55:23.253Z,30.70
2017-07-20T07:57:51.549Z,30.80
2017-07-20T08:00:19.053Z,30.80
2017-07-20T08:02:46.576Z,30.90
2017-07-20T08:05:14.107Z,30.90
2017-07-20T08:07:41.607Z,31.00
2017-07-20T08:10:09.137Z,31.00
2017-07-20T08:12:37.406Z,31.20
2017-07-20T08:15:05.676Z,31.30
2017-07-20T08:17:33.200Z,31.20
2017-07-20T08:20:00.701Z,31.40
2017-07-20T08:22:28.996Z,31.50
2017-07-20T08:24:56.509Z,31.50
2017-07-20T08:27:24.069Z,31.50
2017-07-20T08:29:51.577Z,31.50
2017-07-20T08:32:19.077Z,31.50
2017-07-20T08:34:46.633Z,31.50
2017-07-20T08:37:14.129Z,31.50
2017-07-20T08:39:41.646Z,31.50
2017-07-20T08:42:09.918Z,31.50
2017-07-20T08:44:37.442Z,31.50
2017-07-20T08:47:04.936Z,31.50
2017-07-20T08:49:32.437Z,31.50
2017-07-20T08:51:59.956Z,31.50
2017-07-20T08:54:27.448Z,31.40
2017-07-20T08:56:54.969Z,31.40
2017-07-20T08:59:22.507Z,31.40
2017-07-20T09:01:50.795Z,31.20
2017-07-20T09:04:18.301Z,31.20
2017-07-20T09:06:45.846Z,31.20
2017-07-20T09:09:13.342Z,31.10
2017-07-20T09:11:41.608Z,31.20
2017-07-20T09:14:09.122Z,31.30
2017-07-20T09:16:36.616Z,31.30
2017-07-20T09:19:04.161Z,31.00
2017-07-20T09:21:31.661Z,31.00
2017-07-20T09:23:59.955Z,30.80
2017-07-20T09:26:27.457Z,30.80
2017-07-20T09:28:54.972Z,30.90
2017-07-20T09:31:22.470Z,31.00
2017-07-20T09:33:49.985Z,31.00
2017-07-20T09:36:18.245Z,31.20
2017-07-20T09:38:45.743Z,31.20
2017-07-20T09:41:13.390Z,31.20
2017-07-20T09:43:40.885Z,31.20
2017-07-20T09:46:08.398Z,31.20
2017-07-20T09:48:36.666Z,31.10
2017-07-20T09:51:04.954Z,31.20
2017-07-20T09:53:33.214Z,31.30
2017-07-20T09:56:01.502Z,31.30
2017-07-20T09:58:29.005Z,31.30
2017-07-20T10:00:56.604Z,31.30
2017-07-20T10:03:24.130Z,31.30
2017-07-20T10:05:51.673Z,31.30
2017-07-20T10:08:19.172Z,31.30
2017-07-20T10:10:46.684Z,31.20
2017-07-20T10:13:14.205Z,31.10
2017-07-20T10:15:41.702Z,31.10
2017-07-20T10:18:09.215Z,31.10
2017-07-20T10:20:36.718Z,31.00
2017-07-20T10:23:04.231Z,31.00
2017-07-20T10:25:31.735Z,31.00
2017-07-20T10:27:59.265Z,31.00
2017-07-20T10:30:26.765Z,30.90
2017-07-20T10:32:54.267Z,30.90
2017-07-20T10:35:21.782Z,30.90
2017-07-20T10:37:49.285Z,30.90
2017-07-20T10:40:16.802Z,31.00
2017-07-20T10:42:44.307Z,31.10
2017-07-20T10:45:11.830Z,31.10
2017-07-20T10:47:39.343Z,31.10
2017-07-20T10:50:06.898Z,31.10
2017-07-20T10:52:35.165Z,31.30
2017-07-20T10:55:02.682Z,31.20
2017-07-20T10:57:30.190Z,31.20
2017-07-20T10:59:58.465Z,31.30
2017-07-20T11:02:26.780Z,31.30
2017-07-20T11:04:54.289Z,31.30
2017-07-20T11:07:21.809Z,31.40
2017-07-20T11:09:49.337Z,31.40
2017-07-20T11:12:16.847Z,31.50
2017-07-20T11:14:45.123Z,31.50
2017-07-20T11:17:12.638Z,31.50
2017-07-20T11:19:40.156Z,31.50
2017-07-20T11:22:08.441Z,31.50
2017-07-20T11:24:35.959Z,31.40
2017-07-20T11:27:03.458Z,31.40
2017-07-20T11:29:30.974Z,31.40
2017-07-20T11:31:58.473Z,31.20
2017-07-20T11:34:26.753Z,31.10
2017-07-20T11:36:54.249Z,31.10
2017-07-20T11:39:21.765Z,31.10
2017-07-20T11:41:50.028Z,31.10
2017-07-20T11:44:18.317Z,31.10
2017-07-20T11:46:45.834Z,31.10
2017-07-20T11:49:13.333Z,31.10
2017-07-20T11:51:41.614Z,31.10
2017-07-20T11:54:09.875Z,31.10
2017-07-20T11:56:37.397Z,31.10
2017-07-20T11:59:04.893Z,31.10
2017-07-20T12:01:33.178Z,31.00
2017-07-20T12:04:01.434Z,31.00
2017-07-20T12:06:28.945Z,31.00
2017-07-20T12:08:56.441Z,31.00
2017-07-20T12:11:23.958Z,30.90
2017-07-20T12:13:51.466Z,30.70
2017-07-20T12:16:18.965Z,30.70
2017-07-20T12:18:46.479Z,30.70
2017-07-20T12:21:13.974Z,30.60
2017-07-20T12:23:42.250Z,30.30
2017-07-20T12:26:09.757Z,30.30
2017-07-20T12:28:37.265Z,30.20
2017-07-20T12:31:05.525Z,30.00
2017-07-20T12:33:33.045Z,30.00
2017-07-20T12:36:00.561Z,30.00
2017-07-20T12:38:28.845Z,29.70
2017-07-20T12:40:56.337Z,29.80
2017-07-20T12:43:23.826Z,29.60
2017-07-20T12:45:51.333Z,29.50
2017-07-20T12:48:18.962Z,29.50
2017-07-20T12:50:46.480Z,29.40
2017-07-20T12:53:13.983Z,29.30
2017-07-20T12:55:42.278Z,29.00
2017-07-20T12:58:10.545Z,28.90
2017-07-20T13:00:38.834Z,28.80
2017-07-20T13:03:07.094Z,28.70
2017-07-20T13:05:34.594Z,28.70
2017-07-20T13:08:02.102Z,28.60
2017-07-20T13:10:29.589Z,28.50
2017-07-20T13:12:57.866Z,28.10
2017-07-20T13:15:26.118Z,28.10
2017-07-20T13:17:53.622Z,28.00
2017-07-20T13:20:21.113Z,28.00
2017-07-20T13:22:48.625Z,27.90
2017-07-20T13:25:16.120Z,27.70
2017-07-20T13:27:43.637Z,27.50
2017-07-20T13:30:11.125Z,27.20
2017-07-20T13:32:38.614Z,27.00
2017-07-20T13:35:06.121Z,26.90
2017-07-20T13:37:33.612Z,26.70
2017-07-20T13:40:01.137Z,26.60
2017-07-20T13:45:11.412Z,26.50
2017-07-20T13:47:38.964Z,26.20
2017-07-20T13:50:06.531Z,26.10
2017-07-20T13:52:34.068Z,26.00
2017-07-20T13:55:01.613Z,25.90
2017-07-20T13:57:29.138Z,25.80
2017-07-20T13:59:56.705Z,25.80
2017-07-20T14:02:24.985Z,25.70
2017-07-20T14:04:52.499Z,25.70
2017-07-20T14:07:20.032Z,25.70
2017-07-20T14:09:47.551Z,25.60
2017-07-20T14:12:15.873Z,25.50
2017-07-20T14:14:43.420Z,25.50
2017-07-20T14:17:10.980Z,25.50
2017-07-20T14:19:38.510Z,25.50
2017-07-20T14:22:06.839Z,25.40
2017-07-20T14:24:34.361Z,25.40
2017-07-20T14:27:02.659Z,25.30
2017-07-20T14:29:30.185Z,25.30
2017-07-20T14:31:58.514Z,25.30
2017-07-20T14:34:26.036Z,25.30
2017-07-20T14:36:54.333Z,25.20
2017-07-20T14:39:21.869Z,25.20
2017-07-20T14:41:50.161Z,25.20
2017-07-20T14:44:17.685Z,25.10
2017-07-20T14:46:45.173Z,25.20
2017-07-20T14:49:12.673Z,25.10
2017-07-20T14:51:40.924Z,25.10
2017-07-20T14:54:08.425Z,25.10
2017-07-20T14:56:35.917Z,25.10
2017-07-20T14:59:03.417Z,25.10
2017-07-20T15:01:31.677Z,25.10
2017-07-20T15:03:59.204Z,25.10
2017-07-20T15:06:26.697Z,25.10
2017-07-20T15:08:54.191Z,25.00
2017-07-20T15:11:21.705Z,25.00
2017-07-20T15:13:49.190Z,24.90
2017-07-20T15:16:17.461Z,24.80
2017-07-20T15:18:45.724Z,24.70
2017-07-20T15:21:13.234Z,24.70
2017-07-20T15:23:40.730Z,24.80
2017-07-20T15:26:08.249Z,24.70
2017-07-20T15:28:35.738Z,24.60
2017-07-20T15:31:03.243Z,24.60
2017-07-20T15:33:30.761Z,24.60
2017-07-20T15:35:58.246Z,24.50
2017-07-20T15:38:26.517Z,24.50
2017-07-20T15:40:54.001Z,24.50
2017-07-20T15:43:21.513Z,24.50
2017-07-20T15:45:49.010Z,24.50
2017-07-20T15:48:17.286Z,24.40
2017-07-20T15:50:46.523Z,24.40
2017-07-20T15:53:14.016Z,24.40
2017-07-20T15:55:41.531Z,24.40
2017-07-20T15:58:09.021Z,24.50
2017-07-20T16:00:36.545Z,24.40
2017-07-20T16:03:04.033Z,24.40
2017-07-20T16:05:31.549Z,24.40
2017-07-20T16:07:59.046Z,24.50
2017-07-20T16:10:26.546Z,24.50
2017-07-20T16:12:54.806Z,24.50
2017-07-20T16:15:22.309Z,24.50
2017-07-20T16:17:49.797Z,24.60
2017-07-20T16:20:17.297Z,24.60
2017-07-20T16:22:45.558Z,24.70
2017-07-20T16:25:13.074Z,24.70
2017-07-20T16:27:40.561Z,24.80
2017-07-20T16:30:08.055Z,24.80
2017-07-20T16:32:36.330Z,24.90
2017-07-20T16:35:04.585Z,25.00
2017-07-20T16:37:32.085Z,25.00
2017-07-20T16:39:59.569Z,25.00
2017-07-20T16:42:27.088Z,25.10
2017-07-20T16:44:55.354Z,25.30
2017-07-20T16:47:22.866Z,25.30
2017-07-20T16:49:50.360Z,25.40
2017-07-20T16:52:17.861Z,25.60
2017-07-20T16:54:45.372Z,25.70
2017-07-20T16:57:12.870Z,25.90
2017-07-20T16:59:41.142Z,26.40
2017-07-20T17:02:09.394Z,26.50
2017-07-20T17:04:36.902Z,26.50
2017-07-20T17:07:04.400Z,26.70
2017-07-20T17:09:31.900Z,26.90
2017-07-20T17:12:00.157Z,27.10
2017-07-20T17:14:27.662Z,27.00
2017-07-20T17:16:55.157Z,27.20
2017-07-20T17:19:23.438Z,27.30
2017-07-20T17:21:50.933Z,27.20
2017-07-20T17:24:18.423Z,27.30
2017-07-20T17:26:45.935Z,27.30
2017-07-20T17:29:14.195Z,27.30
2017-07-20T17:31:41.706Z,27.20
2017-07-20T17:34:09.198Z,27.20
2017-07-20T17:36:36.715Z,27.20
2017-07-20T17:39:04.202Z,27.10
2017-07-20T17:41:31.725Z,27.10
2017-07-20T17:43:59.229Z,27.00
2017-07-20T17:46:26.746Z,27.00
2017-07-20T17:48:54.239Z,26.90
2017-07-20T17:51:21.761Z,26.90
2017-07-20T17:53:49.254Z,26.80
2017-07-20T17:56:16.745Z,26.70
2017-07-20T17:58:44.257Z,26.70
2017-07-20T18:01:11.769Z,26.60
2017-07-20T18:03:39.305Z,26.60
2017-07-20T18:06:06.803Z,26.60
2017-07-20T18:08:35.071Z,26.40
2017-07-20T18:11:03.326Z,26.40
2017-07-20T18:13:30.833Z,26.40
2017-07-20T18:15:58.321Z,26.30
2017-07-20T18:18:25.845Z,26.30
2017-07-20T18:20:53.342Z,26.20
2017-07-20T18:23:20.891Z,26.20
2017-07-20T18:25:48.447Z,26.10
2017-07-20T18:28:16.000Z,26.10
2017-07-20T18:30:43.525Z,26.00
2017-07-20T18:33:11.049Z,26.00
2017-07-20T18:35:38.557Z,25.90
2017-07-20T18:38:06.069Z,25.90
2017-07-20T18:40:34.452Z,25.80
2017-07-20T18:43:01.974Z,25.70
2017-07-20T18:45:29.492Z,25.70
2017-07-20T18:47:57.805Z,25.50
2017-07-20T18:50:25.330Z,25.60
2017-07-20T18:52:53.587Z,25.50
2017-07-20T18:55:21.089Z,25.40
2017-07-20T18:57:48.611Z,25.40
2017-07-20T19:00:16.102Z,25.30
2017-07-20T19:02:43.615Z,25.20
2017-07-20T19:05:11.113Z,25.10
2017-07-20T19:07:38.635Z,25.10
2017-07-20T19:10:06.129Z,25.00
2017-07-20T19:12:33.638Z,24.90
2017-07-20T19:15:01.131Z,24.80
2017-07-20T19:17:28.638Z,24.80
2017-07-20T19:19:56.132Z,24.70
2017-07-20T19:22:23.654Z,24.60
2017-07-20T19:24:51.153Z,24.50
2017-07-20T19:27:18.668Z,24.50
2017-07-20T19:29:46.173Z,24.40
2017-07-20T19:32:13.678Z,24.30
2017-07-20T19:34:41.186Z,24.20
2017-07-20T19:37:08.693Z,24.20
2017-07-20T19:39:36.201Z,24.10
2017-07-20T19:42:03.684Z,24.10
2017-07-20T19:44:32.015Z,23.90
2017-07-20T19:46:59.508Z,23.90
2017-07-20T19:49:27.020Z,23.90
2017-07-20T19:51:54.508Z,23.80
2017-07-20T19:54:22.024Z,23.70
2017-07-20T19:56:49.537Z,23.70
2017-07-20T19:59:17.026Z,23.70
2017-07-20T20:01:45.302Z,23.60
2017-07-20T20:04:12.801Z,23.50
2017-07-20T20:06:40.327Z,23.50
2017-07-20T20:09:07.817Z,23.40
2017-07-20T20:11:35.317Z,23.40
2017-07-20T20:14:02.805Z,23.30
2017-07-20T20:16:30.319Z,23.30
2017-07-20T20:18:57.808Z,23.30
2017-07-20T20:21:26.097Z,23.20
2017-07-20T20:23:53.629Z,23.10
2017-07-20T20:26:21.138Z,23.10
2017-07-20T20:28:48.629Z,23.10
2017-07-20T20:31:16.146Z,23.00
2017-07-20T20:33:43.637Z,23.00
2017-07-20T20:36:11.142Z,23.00
2017-07-20T20:38:39.454Z,22.90
2017-07-20T20:41:06.949Z,22.90
2017-07-20T20:43:34.454Z,22.80
2017-07-20T20:46:01.949Z,22.80
2017-07-20T20:48:29.468Z,22.80
2017-07-20T20:50:56.965Z,22.70
2017-07-20T20:53:24.474Z,22.70
2017-07-20T20:55:51.987Z,22.70
2017-07-20T20:58:22.170Z,22.60
2017-07-20T21:00:49.674Z,22.60
2017-07-20T21:03:17.190Z,22.60
2017-07-20T21:05:44.683Z,22.50
2017-07-20T21:08:12.174Z,22.50
2017-07-20T21:10:40.449Z,22.40
2017-07-20T21:13:08.705Z,22.40
2017-07-20T21:15:36.217Z,22.30
2017-07-20T21:18:03.713Z,22.30
2017-07-20T21:20:31.226Z,22.30
2017-07-20T21:22:58.717Z,22.30
2017-07-20T21:25:26.225Z,22.20
2017-07-20T21:27:54.476Z,22.20
2017-07-20T21:30:22.762Z,22.10
2017-07-20T21:32:51.013Z,22.10
2017-07-20T21:35:18.526Z,22.10
2017-07-20T21:37:46.018Z,22.10
2017-07-20T21:40:13.525Z,22.00
2017-07-20T21:42:41.056Z,22.00
2017-07-20T21:45:08.545Z,22.00
2017-07-20T21:47:36.062Z,22.00
2017-07-20T21:50:03.549Z,21.90
2017-07-20T21:52:31.063Z,21.90
2017-07-20T21:54:58.575Z,21.90
2017-07-20T21:57:26.090Z,21.90
2017-07-20T21:59:53.579Z,21.90
2017-07-20T22:02:21.856Z,21.90
2017-07-20T22:04:50.110Z,21.80
2017-07-20T22:07:17.617Z,21.80
2017-07-20T22:09:45.106Z,21.80
2017-07-20T22:12:12.617Z,21.80
2017-07-20T22:14:40.870Z,21.80
2017-07-20T22:17:08.407Z,21.70
2017-07-20T22:19:35.924Z,21.70
2017-07-20T22:22:03.409Z,21.70
2017-07-20T22:24:30.927Z,21.70
2017-07-20T22:26:58.414Z,21.70
2017-07-20T22:29:25.922Z,21.70
2017-07-20T22:31:53.417Z,21.60
2017-07-20T22:34:20.931Z,21.60
2017-07-20T22:36:48.421Z,21.60
2017-07-20T22:39:16.701Z,21.50
2017-07-20T22:41:44.186Z,21.50
2017-07-20T22:44:11.686Z,21.50
2017-07-20T22:46:39.201Z,21.50
2017-07-20T22:49:06.705Z,21.40
2017-07-20T22:51:34.222Z,21.40
2017-07-20T22:54:01.722Z,21.40
2017-07-20T22:56:29.238Z,21.30
2017-07-20T22:58:56.746Z,21.30
2017-07-20T23:01:24.254Z,21.30
2017-07-20T23:03:57.309Z,21.30
2017-07-20T23:06:24.818Z,21.30
2017-07-20T23:08:52.337Z,21.20
2017-07-20T23:11:19.904Z,21.20
2017-07-20T23:13:47.385Z,21.20
2017-07-20T23:16:14.878Z,21.20
2017-07-20T23:18:42.385Z,21.10
2017-07-20T23:21:09.882Z,21.10
2017-07-20T23:23:37.385Z,21.10
2017-07-20T23:26:06.345Z,21.00
2017-07-20T23:28:33.854Z,21.00
2017-07-20T23:31:01.365Z,21.00
2017-07-20T23:33:28.873Z,21.00
2017-07-20T23:35:56.366Z,21.00
2017-07-20T23:38:23.881Z,20.90
2017-07-20T23:40:51.368Z,20.90
2017-07-20T23:43:18.862Z,20.90
2017-07-20T23:45:46.370Z,20.90
2017-07-20T23:48:13.862Z,20.90
2017-07-20T23:50:41.378Z,20.90
2017-07-20T23:53:08.864Z,20.80
2017-07-20T23:55:36.374Z,20.80
2017-07-20T23:58:04.634Z,20.70
